createdAt,value
2022-11-26T00:01:22.005Z,25.35
2022-11-26T00:03:49.732Z,24.58
2022-11-26T00:06:31.843Z,24.23
2022-11-26T00:08:59.606Z,23.98
2022-11-26T00:11:26.258Z,25.05
2022-11-26T00:13:53.016Z,23.65
2022-11-26T00:16:20.108Z,24.25
2022-11-26T00:18:46.844Z,23.67
2022-11-26T00:21:21.862Z,23.55
2022-11-26T00:23:49.180Z,23.20
2022-11-26T00:26:21.444Z,23.42
2022-11-26T00:29:02.167Z,23.52
2022-11-26T00:31:29.355Z,21.92
2022-11-26T00:33:56.580Z,23.33
2022-11-26T00:36:30.152Z,23.88
2022-11-26T00:39:24.305Z,24.23
2022-11-26T00:41:52.601Z,22.45
2022-11-26T00:44:24.055Z,23.83
2022-11-26T00:46:51.865Z,25.20
2022-11-26T00:49:19.049Z,23.73
2022-11-26T00:51:47.473Z,23.92
2022-11-26T00:54:17.156Z,23.63
2022-11-26T00:56:44.210Z,23.88
2022-11-26T00:59:15.608Z,24.00
2022-11-26T01:01:42.182Z,23.15
2022-11-26T01:04:08.869Z,22.55
2022-11-26T01:06:44.403Z,23.02
2022-11-26T01:09:18.058Z,22.33
2022-11-26T01:11:46.465Z,20.67
2022-11-26T01:14:17.588Z,23.48
2022-11-26T01:16:46.021Z,21.92
2022-11-26T01:19:14.841Z,22.13
2022-11-26T01:21:42.057Z,21.10
2022-11-26T01:24:09.071Z,21.23
2022-11-26T01:26:41.905Z,20.67
2022-11-26T01:29:15.700Z,22.10
2022-11-26T01:31:42.370Z,22.48
2022-11-26T01:34:09.512Z,20.85
2022-11-26T01:36:39.051Z,19.88
2022-11-26T01:39:10.314Z,22.63
2022-11-26T01:42:03.388Z,20.63
2022-11-26T01:44:33.123Z,20.08
2022-11-26T01:47:00.770Z,19.95
2022-11-26T01:49:33.792Z,21.40
2022-11-26T01:52:21.691Z,20.73
2022-11-26T01:54:52.136Z,20.45
2022-11-26T01:57:23.439Z,19.60
2022-11-26T01:59:59.354Z,20.13
2022-11-26T02:02:28.751Z,19.95
2022-11-26T02:05:09.181Z,20.33
2022-11-26T02:07:36.698Z,20.90
2022-11-26T02:10:04.385Z,19.17
2022-11-26T02:12:31.040Z,19.40
2022-11-26T02:14:57.657Z,19.90
2022-11-26T02:17:32.125Z,20.10
2022-11-26T02:20:35.214Z,20.92
2022-11-26T02:23:23.167Z,20.92
2022-11-26T02:26:26.192Z,22.15
2022-11-26T02:29:10.260Z,20.85
2022-11-26T02:31:54.868Z,20.50
2022-11-26T02:34:49.353Z,21.70
2022-11-26T02:37:30.008Z,22.08
2022-11-26T02:39:57.934Z,22.75
2022-11-26T02:42:30.521Z,23.42
2022-11-26T02:45:12.965Z,24.80
2022-11-26T02:47:42.979Z,25.23
2022-11-26T02:50:16.778Z,27.17
2022-11-26T02:52:44.912Z,27.73
2022-11-26T02:55:13.927Z,27.20
2022-11-26T02:57:48.461Z,25.45
2022-11-26T03:00:16.439Z,25.02
2022-11-26T03:02:51.440Z,25.00
2022-11-26T03:05:19.036Z,26.50
2022-11-26T03:07:49.405Z,27.80
2022-11-26T03:10:17.113Z,26.42
2022-11-26T03:12:43.680Z,25.70
2022-11-26T03:15:10.923Z,30.98
2022-11-26T03:17:37.611Z,29.58
2022-11-26T03:20:04.837Z,29.38
2022-11-26T03:22:31.464Z,27.90
2022-11-26T03:24:58.055Z,29.80
2022-11-26T03:27:24.592Z,26.88
2022-11-26T03:29:51.192Z,27.55
2022-11-26T03:32:17.841Z,28.73
2022-11-26T03:34:44.434Z,29.73
2022-11-26T03:37:11.053Z,28.75
2022-11-26T03:39:37.729Z,29.08
2022-11-26T03:42:04.398Z,27.88
2022-11-26T03:44:31.072Z,27.98
2022-11-26T03:46:57.781Z,28.40
2022-11-26T03:49:24.420Z,27.70
2022-11-26T03:51:50.995Z,27.15
2022-11-26T03:54:17.770Z,28.65
2022-11-26T03:56:44.374Z,29.13
2022-11-26T03:59:11.528Z,28.27
2022-11-26T04:01:38.199Z,30.15
2022-11-26T04:04:05.061Z,28.92
2022-11-26T04:06:31.841Z,28.02
2022-11-26T04:08:58.464Z,29.73
2022-11-26T04:11:25.204Z,28.48
2022-11-26T04:13:51.786Z,29.00
2022-11-26T04:16:18.559Z,28.80
2022-11-26T04:18:45.171Z,28.83
2022-11-26T04:21:11.756Z,30.02
2022-11-26T04:23:38.423Z,29.85
2022-11-26T04:26:05.389Z,31.38
2022-11-26T04:28:32.283Z,30.90
2022-11-26T04:30:59.093Z,29.33
2022-11-26T04:33:28.747Z,28.50
2022-11-26T04:35:55.642Z,27.65
2022-11-26T04:38:25.752Z,26.27
2022-11-26T04:40:52.761Z,26.50
2022-11-26T04:43:19.407Z,25.48
2022-11-26T04:45:46.073Z,22.42
2022-11-26T04:48:12.672Z,24.38
2022-11-26T04:50:39.216Z,22.80
2022-11-26T04:53:05.825Z,20.33
2022-11-26T04:55:32.414Z,20.85
2022-11-26T04:57:59.431Z,20.35
2022-11-26T05:00:26.373Z,19.30
2022-11-26T05:02:53.093Z,18.60
2022-11-26T05:05:19.819Z,18.30
2022-11-26T05:07:46.576Z,20.35
2022-11-26T05:10:13.681Z,19.17
2022-11-26T05:12:40.248Z,17.95
2022-11-26T05:15:07.316Z,18.40
2022-11-26T05:17:34.024Z,19.13
2022-11-26T05:20:00.588Z,17.83
2022-11-26T05:22:27.333Z,17.98
2022-11-26T05:24:53.964Z,18.65
2022-11-26T05:27:20.707Z,17.30
2022-11-26T05:29:47.276Z,19.42
2022-11-26T05:32:13.903Z,17.83
2022-11-26T05:34:41.974Z,18.15
2022-11-26T05:37:08.867Z,18.15
2022-11-26T05:39:35.560Z,18.25
2022-11-26T05:42:07.661Z,16.88
2022-11-26T05:44:37.069Z,17.05
2022-11-26T05:47:04.081Z,17.25
2022-11-26T05:49:30.653Z,18.55
2022-11-26T05:51:57.300Z,20.30
2022-11-26T05:54:23.861Z,17.73
2022-11-26T05:56:54.158Z,18.95
2022-11-26T05:59:23.930Z,19.08
2022-11-26T06:01:50.579Z,19.85
2022-11-26T06:04:17.175Z,19.85
2022-11-26T06:06:43.755Z,19.35
2022-11-26T06:09:10.343Z,19.45
2022-11-26T06:11:38.129Z,20.08
2022-11-26T06:14:04.733Z,20.27
2022-11-26T06:16:31.655Z,20.92
2022-11-26T06:18:59.295Z,21.95
2022-11-26T06:21:25.848Z,21.30
2022-11-26T06:23:58.929Z,22.23
2022-11-26T06:26:26.260Z,22.38
2022-11-26T06:28:55.403Z,22.75
2022-11-26T06:31:22.103Z,23.13
2022-11-26T06:33:52.737Z,21.95
2022-11-26T06:36:19.324Z,22.63
2022-11-26T06:38:45.893Z,22.58
2022-11-26T06:41:12.504Z,22.23
2022-11-26T06:43:39.098Z,22.90
2022-11-26T06:46:08.932Z,21.77
2022-11-26T06:48:37.117Z,21.20
2022-11-26T06:51:07.831Z,22.77
2022-11-26T06:53:34.985Z,22.38
2022-11-26T06:56:07.621Z,23.98
2022-11-26T06:58:34.501Z,22.98
2022-11-26T07:01:01.104Z,21.10
2022-11-26T07:03:33.092Z,22.08
2022-11-26T07:06:00.139Z,21.60
2022-11-26T07:08:26.711Z,20.70
2022-11-26T07:10:53.270Z,22.33
2022-11-26T07:13:21.541Z,20.42
2022-11-26T07:15:48.163Z,20.92
2022-11-26T07:18:14.776Z,20.95
2022-11-26T07:20:41.571Z,20.42
2022-11-26T07:23:08.150Z,19.75
2022-11-26T07:25:34.685Z,20.95
2022-11-26T07:28:01.260Z,20.83
2022-11-26T07:30:27.861Z,20.08
2022-11-26T07:32:54.504Z,19.40
2022-11-26T07:35:21.109Z,19.15
2022-11-26T07:37:47.776Z,18.60
2022-11-26T07:40:14.434Z,19.23
2022-11-26T07:42:41.068Z,21.42
2022-11-26T07:45:08.154Z,18.02
2022-11-26T07:47:34.709Z,18.52
2022-11-26T07:50:01.318Z,17.20
2022-11-26T07:52:27.888Z,17.15
2022-11-26T07:54:54.507Z,15.88
2022-11-26T07:57:22.713Z,15.77
2022-11-26T07:59:49.527Z,14.85
2022-11-26T08:02:16.937Z,15.00
2022-11-26T08:04:44.761Z,14.52
2022-11-26T08:07:12.623Z,14.05
2022-11-26T08:09:41.335Z,13.80
2022-11-26T08:12:07.996Z,13.48
2022-11-26T08:14:34.707Z,13.02
2022-11-26T08:17:01.329Z,13.57
2022-11-26T08:19:27.959Z,13.05
2022-11-26T08:21:54.784Z,13.13
2022-11-26T08:24:21.461Z,11.32
2022-11-26T08:26:48.131Z,12.52
2022-11-26T08:29:15.620Z,11.52
2022-11-26T08:31:46.458Z,10.77
2022-11-26T08:34:16.269Z,11.13
2022-11-26T08:36:44.133Z,12.65
2022-11-26T08:39:19.178Z,11.07
2022-11-26T08:41:51.934Z,9.15
2022-11-26T08:44:19.690Z,10.40
2022-11-26T08:46:46.258Z,9.85
2022-11-26T08:49:14.966Z,9.68
2022-11-26T08:51:42.532Z,9.65
2022-11-26T08:54:09.693Z,9.13
2022-11-26T08:56:36.438Z,9.60
2022-11-26T08:59:03.291Z,8.95
2022-11-26T09:01:32.677Z,8.77
2022-11-26T09:04:01.618Z,8.90
2022-11-26T09:06:30.822Z,8.98
2022-11-26T09:09:13.019Z,8.55
2022-11-26T09:11:57.918Z,8.02
2022-11-26T09:14:27.721Z,8.02
2022-11-26T09:16:55.627Z,8.02
2022-11-26T09:19:23.475Z,7.85
2022-11-26T09:21:50.451Z,7.07
2022-11-26T09:24:18.156Z,6.60
2022-11-26T09:26:44.946Z,6.72
2022-11-26T09:29:18.486Z,7.03
2022-11-26T09:32:22.008Z,7.40
2022-11-26T09:34:38.415Z,7.15
2022-11-26T09:37:05.389Z,7.25
2022-11-26T09:39:32.365Z,7.32
2022-11-26T09:42:08.209Z,6.45
2022-11-26T09:44:47.300Z,6.45
2022-11-26T09:47:36.323Z,5.72
2022-11-26T09:50:22.475Z,6.53
2022-11-26T09:53:23.555Z,5.78
2022-11-26T09:55:52.750Z,5.70
2022-11-26T09:58:37.081Z,5.80
2022-11-26T10:01:06.330Z,6.28
2022-11-26T10:03:35.761Z,6.13
2022-11-26T10:06:07.799Z,5.07
2022-11-26T10:08:43.279Z,5.97
2022-11-26T10:11:15.917Z,5.65
2022-11-26T10:13:54.024Z,5.43
2022-11-26T10:16:29.688Z,5.63
2022-11-26T10:19:02.845Z,6.72
2022-11-26T10:22:03.276Z,6.35
2022-11-26T10:24:33.979Z,6.35
2022-11-26T10:27:05.470Z,7.60
2022-11-26T10:29:42.438Z,7.88
2022-11-26T10:32:11.893Z,8.13
2022-11-26T10:34:46.672Z,7.45
2022-11-26T10:37:13.889Z,8.60
2022-11-26T10:39:40.954Z,7.10
2022-11-26T10:42:18.871Z,8.27
2022-11-26T10:44:49.439Z,8.18
2022-11-26T10:47:30.633Z,7.80
2022-11-26T10:50:19.099Z,8.98
2022-11-26T10:52:51.202Z,8.88
2022-11-26T10:55:39.642Z,8.80
2022-11-26T10:58:14.547Z,9.15
2022-11-26T11:00:46.016Z,10.45
2022-11-26T11:03:17.880Z,10.60
2022-11-26T11:05:45.533Z,10.40
2022-11-26T11:08:28.629Z,10.55
2022-11-26T11:10:58.213Z,9.30
2022-11-26T11:13:41.113Z,10.93
2022-11-26T11:16:09.400Z,13.05
2022-11-26T11:18:36.901Z,13.35
2022-11-26T11:21:05.572Z,13.07
2022-11-26T11:24:06.608Z,12.27
2022-11-26T11:26:26.118Z,12.23
2022-11-26T11:28:55.388Z,13.90
2022-11-26T11:31:27.312Z,14.15
2022-11-26T11:34:13.872Z,14.57
2022-11-26T11:36:40.589Z,15.15
2022-11-26T11:39:27.893Z,13.13
2022-11-26T11:41:54.796Z,14.40
2022-11-26T11:44:25.719Z,15.45
2022-11-26T11:47:20.763Z,16.48
2022-11-26T11:50:24.992Z,15.50
2022-11-26T11:53:09.885Z,16.17
2022-11-26T11:56:02.849Z,17.40
2022-11-26T11:59:00.285Z,16.40
2022-11-26T12:02:04.033Z,17.27
2022-11-26T12:04:41.118Z,18.63
2022-11-26T12:07:36.162Z,19.20
2022-11-26T12:10:16.439Z,16.35
2022-11-26T12:12:57.320Z,17.48
2022-11-26T12:15:30.073Z,17.55
2022-11-26T12:18:20.709Z,16.67
2022-11-26T12:20:53.721Z,16.27
2022-11-26T12:23:49.458Z,16.13
2022-11-26T12:26:25.589Z,15.43
2022-11-26T12:31:58.263Z,14.88
2022-11-26T12:34:31.638Z,14.93
2022-11-26T12:37:06.220Z,15.07
2022-11-26T12:39:39.924Z,16.33
2022-11-26T12:42:15.251Z,16.67
2022-11-26T12:44:44.544Z,15.20
2022-11-26T12:47:36.954Z,15.30
2022-11-26T12:50:23.460Z,16.08
2022-11-26T12:53:04.080Z,16.00
2022-11-26T12:55:38.930Z,15.93
2022-11-26T12:58:14.652Z,16.13
2022-11-26T13:00:41.816Z,15.57
2022-11-26T13:03:15.501Z,14.98
2022-11-26T13:06:09.216Z,14.70
2022-11-26T13:08:51.798Z,14.45
2022-11-26T13:11:45.817Z,15.65
2022-11-26T13:14:21.548Z,14.35
2022-11-26T13:16:52.693Z,15.18
2022-11-26T13:19:25.126Z,15.80
2022-11-26T13:22:26.981Z,15.35
2022-11-26T13:25:23.655Z,15.55
2022-11-26T13:27:57.586Z,14.82
2022-11-26T13:30:51.656Z,16.23
2022-11-26T13:33:35.951Z,15.32
2022-11-26T13:36:39.883Z,14.30
2022-11-26T13:39:34.493Z,15.60
2022-11-26T13:42:24.307Z,16.63
2022-11-26T13:45:02.691Z,15.95
2022-11-26T13:47:51.537Z,16.50
2022-11-26T13:50:31.400Z,16.15
2022-11-26T13:53:07.714Z,16.52
2022-11-26T13:55:42.629Z,16.60
2022-11-26T13:58:18.589Z,16.48
2022-11-26T14:00:45.226Z,17.00
2022-11-26T14:03:48.646Z,16.85
2022-11-26T14:06:15.747Z,17.33
2022-11-26T14:08:45.174Z,16.20
2022-11-26T14:11:16.097Z,16.58
2022-11-26T14:14:24.653Z,16.80
2022-11-26T14:17:00.526Z,17.60
2022-11-26T14:19:42.901Z,17.20
2022-11-26T14:22:21.716Z,17.60
2022-11-26T14:24:51.140Z,18.83
2022-11-26T14:27:22.133Z,20.13
2022-11-26T14:30:07.017Z,20.30
2022-11-26T14:32:39.671Z,20.63
2022-11-26T14:35:25.245Z,19.38
2022-11-26T14:37:56.113Z,20.88
2022-11-26T14:40:32.080Z,18.63
2022-11-26T14:43:19.623Z,18.50
2022-11-26T14:45:48.924Z,18.45
2022-11-26T14:48:24.632Z,19.10
2022-11-26T14:50:54.083Z,20.83
2022-11-26T14:53:23.931Z,20.50
2022-11-26T14:55:52.576Z,20.23
2022-11-26T14:58:48.221Z,19.85
2022-11-26T15:01:24.269Z,19.92
2022-11-26T15:04:03.047Z,18.02
2022-11-26T15:06:38.877Z,18.38
2022-11-26T15:09:15.835Z,16.98
2022-11-26T15:11:54.914Z,18.08
2022-11-26T15:14:38.706Z,16.08
2022-11-26T15:17:07.029Z,17.15
2022-11-26T15:19:36.617Z,17.85
2022-11-26T15:22:06.326Z,17.45
2022-11-26T15:24:33.154Z,17.70
2022-11-26T15:26:59.761Z,16.88
2022-11-26T15:29:37.366Z,18.35
2022-11-26T15:32:04.639Z,18.02
2022-11-26T15:34:33.013Z,17.27
2022-11-26T15:37:02.685Z,16.48
2022-11-26T15:39:31.551Z,18.08
2022-11-26T15:42:06.045Z,16.33
2022-11-26T15:44:42.087Z,16.25
2022-11-26T15:47:19.232Z,18.05
2022-11-26T15:49:55.066Z,19.05
2022-11-26T15:52:30.860Z,20.00
2022-11-26T15:55:12.459Z,20.88
2022-11-26T15:57:41.172Z,20.88
2022-11-26T16:00:36.016Z,19.30
2022-11-26T16:03:03.629Z,21.98
2022-11-26T16:05:35.031Z,22.15
2022-11-26T16:08:04.913Z,22.85
2022-11-26T16:10:36.993Z,20.63
2022-11-26T16:13:19.608Z,23.55
2022-11-26T16:16:17.622Z,22.20
2022-11-26T16:19:00.273Z,22.35
2022-11-26T16:21:32.954Z,24.58
2022-11-26T16:24:33.914Z,21.98
2022-11-26T16:27:05.508Z,22.25
2022-11-26T16:29:35.327Z,22.70
2022-11-26T16:32:03.413Z,24.17
2022-11-26T16:34:30.220Z,24.33
2022-11-26T16:37:18.314Z,26.70
2022-11-26T16:39:45.308Z,24.48
2022-11-26T16:42:16.563Z,23.15
2022-11-26T16:44:43.531Z,23.80
2022-11-26T16:47:16.151Z,24.20
2022-11-26T16:49:42.871Z,23.88
2022-11-26T16:52:18.934Z,23.83
2022-11-26T16:54:46.160Z,25.48
2022-11-26T16:57:19.036Z,28.70
2022-11-26T16:59:50.423Z,25.92
2022-11-26T17:02:22.476Z,25.83
2022-11-26T17:04:49.634Z,24.70
2022-11-26T17:07:26.449Z,23.67
2022-11-26T17:09:53.692Z,23.27
2022-11-26T17:12:23.493Z,25.70
2022-11-26T17:17:38.396Z,25.52
2022-11-26T17:20:22.587Z,27.25
2022-11-26T17:22:49.570Z,26.02
2022-11-26T17:25:16.418Z,26.83
2022-11-26T17:27:43.083Z,27.42
2022-11-26T17:30:19.158Z,26.35
2022-11-26T17:32:45.965Z,26.73
2022-11-26T17:35:13.093Z,26.83
2022-11-26T17:37:40.309Z,27.08
2022-11-26T17:40:19.637Z,24.95
2022-11-26T17:42:46.727Z,26.95
2022-11-26T17:45:14.370Z,28.95
2022-11-26T17:47:41.372Z,28.35
2022-11-26T17:50:23.636Z,30.00
2022-11-26T17:52:50.398Z,29.85
2022-11-26T17:55:18.329Z,29.33
2022-11-26T17:57:45.167Z,29.52
2022-11-26T18:00:15.751Z,26.40
2022-11-26T18:02:43.751Z,27.15
2022-11-26T18:05:11.981Z,29.58
2022-11-26T18:07:39.639Z,29.85
2022-11-26T18:10:14.358Z,29.92
2022-11-26T18:12:41.999Z,32.40
2022-11-26T18:15:09.099Z,30.92
2022-11-26T18:17:35.955Z,30.48
2022-11-26T18:20:02.896Z,29.38
2022-11-26T18:22:30.047Z,33.80
2022-11-26T18:24:57.690Z,31.75
2022-11-26T18:27:30.776Z,30.27
2022-11-26T18:29:57.518Z,28.90
2022-11-26T18:32:24.098Z,29.45
2022-11-26T18:34:50.938Z,27.45
2022-11-26T18:37:17.969Z,28.38
2022-11-26T18:39:44.635Z,27.77
2022-11-26T18:42:36.188Z,28.55
2022-11-26T18:45:00.032Z,27.75
2022-11-26T18:47:27.495Z,27.77
2022-11-26T18:49:54.061Z,26.33
2022-11-26T18:52:20.643Z,27.42
2022-11-26T18:54:47.311Z,27.90
2022-11-26T18:57:13.963Z,26.48
2022-11-26T18:59:40.995Z,28.15
2022-11-26T19:02:10.695Z,28.02
2022-11-26T19:04:43.313Z,28.25
2022-11-26T19:07:12.007Z,28.33
2022-11-26T19:09:39.411Z,29.33
2022-11-26T19:12:06.573Z,28.75
2022-11-26T19:14:33.238Z,28.85
2022-11-26T19:17:00.699Z,28.30
2022-11-26T19:19:28.329Z,29.00
2022-11-26T19:22:00.900Z,27.65
2022-11-26T19:24:29.228Z,32.08
2022-11-26T19:26:56.166Z,31.48
2022-11-26T19:29:22.968Z,33.35
2022-11-26T19:31:49.583Z,36.15
2022-11-26T19:34:16.537Z,32.65
2022-11-26T19:36:48.374Z,35.67
2022-11-26T19:39:16.426Z,33.97
2022-11-26T19:41:45.603Z,35.80
2022-11-26T19:44:16.430Z,36.15
2022-11-26T19:46:44.483Z,35.72
2022-11-26T19:49:13.583Z,34.33
2022-11-26T19:51:40.625Z,29.20
2022-11-26T19:54:08.504Z,31.95
2022-11-26T19:56:36.049Z,29.75
2022-11-26T19:59:03.904Z,28.52
2022-11-26T20:01:32.367Z,31.63
2022-11-26T20:04:04.601Z,29.20
2022-11-26T20:06:32.538Z,28.25
2022-11-26T20:08:59.676Z,32.75
2022-11-26T20:11:27.706Z,32.45
2022-11-26T20:13:55.446Z,33.88
2022-11-26T20:16:27.455Z,34.28
2022-11-26T20:18:54.904Z,36.00
2022-11-26T20:21:24.229Z,37.08
2022-11-26T20:23:51.907Z,36.88
2022-11-26T20:26:22.800Z,35.88
2022-11-26T20:28:51.316Z,34.28
2022-11-26T20:31:23.357Z,33.25
2022-11-26T20:33:53.056Z,36.25
2022-11-26T20:36:22.964Z,36.40
2022-11-26T20:38:54.841Z,34.17
2022-11-26T20:41:22.988Z,34.13
2022-11-26T20:43:54.932Z,35.95
2022-11-26T20:46:28.989Z,34.28
2022-11-26T20:48:56.670Z,34.70
2022-11-26T20:51:23.841Z,41.30
2022-11-26T20:53:52.091Z,39.17
2022-11-26T20:56:21.209Z,36.83
2022-11-26T20:58:49.751Z,33.53
2022-11-26T21:01:24.851Z,30.73
2022-11-26T21:03:52.797Z,32.88
2022-11-26T21:06:27.619Z,31.30
2022-11-26T21:09:01.805Z,30.70
2022-11-26T21:11:29.162Z,30.20
2022-11-26T21:13:58.117Z,32.15
2022-11-26T21:16:24.852Z,32.42
2022-11-26T21:18:55.091Z,32.05
2022-11-26T21:21:27.136Z,32.53
2022-11-26T21:23:54.567Z,30.67
2022-11-26T21:26:25.344Z,30.30
2022-11-26T21:28:57.996Z,29.73
2022-11-26T21:31:25.987Z,31.65
2022-11-26T21:34:01.244Z,31.00
2022-11-26T21:36:29.948Z,31.60
2022-11-26T21:38:56.784Z,32.38
2022-11-26T21:41:25.182Z,32.58
2022-11-26T21:43:52.187Z,35.47
2022-11-26T21:46:23.396Z,34.70
2022-11-26T21:48:55.665Z,36.58
2022-11-26T21:51:25.519Z,37.50
2022-11-26T21:53:54.734Z,32.83
2022-11-26T21:56:27.417Z,32.75
2022-11-26T21:58:57.601Z,34.08
2022-11-26T22:01:30.873Z,31.65
2022-11-26T22:04:18.553Z,31.05
2022-11-26T22:06:47.411Z,30.55
2022-11-26T22:09:16.056Z,31.45
2022-11-26T22:11:45.200Z,31.23
2022-11-26T22:14:15.631Z,30.15
2022-11-26T22:16:43.271Z,31.25
2022-11-26T22:19:10.145Z,34.28
2022-11-26T22:21:40.435Z,32.50
2022-11-26T22:24:13.282Z,31.90
2022-11-26T22:26:40.276Z,32.05
2022-11-26T22:29:07.082Z,30.65
2022-11-26T22:31:36.459Z,30.33
2022-11-26T22:34:24.767Z,31.17
2022-11-26T22:36:51.703Z,30.88
2022-11-26T22:39:19.060Z,29.20
2022-11-26T22:41:46.981Z,29.20
2022-11-26T22:44:17.987Z,29.15
2022-11-26T22:46:45.315Z,28.77
2022-11-26T22:49:14.187Z,28.85
2022-11-26T22:51:41.152Z,27.45
2022-11-26T22:54:09.929Z,29.15
2022-11-26T22:56:40.670Z,30.88
2022-11-26T22:59:10.914Z,27.98
2022-11-26T23:01:38.061Z,30.25
2022-11-26T23:04:07.128Z,30.67
2022-11-26T23:06:35.583Z,28.40
2022-11-26T23:09:05.280Z,28.77
2022-11-26T23:11:44.890Z,28.08
2022-11-26T23:14:12.321Z,26.05
2022-11-26T23:16:41.000Z,27.05
2022-11-26T23:19:08.276Z,25.52
2022-11-26T23:21:40.255Z,29.75
2022-11-26T23:24:07.968Z,28.17
2022-11-26T23:26:36.520Z,28.25
2022-11-26T23:29:05.063Z,26.73
2022-11-26T23:31:37.357Z,25.70
2022-11-26T23:34:05.054Z,26.88
2022-11-26T23:36:32.686Z,26.65
2022-11-26T23:39:02.331Z,26.13
2022-11-26T23:41:29.217Z,25.58
2022-11-26T23:43:55.988Z,24.42
2022-11-26T23:46:28.269Z,26.10
2022-11-26T23:48:55.112Z,26.50
2022-11-26T23:51:29.049Z,26.55
2022-11-26T23:53:55.748Z,25.77
2022-11-26T23:56:27.052Z,25.45
2022-11-26T23:58:56.200Z,25.23
